createdAt,value
2022-08-22T00:00:59.677Z,99.90
2022-08-22T00:02:56.363Z,92.80
2022-08-22T00:02:59.184Z,99.90
2022-08-22T00:03:42.267Z,99.90
2022-08-22T00:06:19.037Z,99.90
2022-08-22T00:09:00.221Z,99.90
2022-08-22T00:11:41.680Z,99.90
2022-08-22T00:14:18.222Z,99.90
2022-08-22T00:16:56.009Z,99.90
2022-08-22T00:19:31.736Z,99.90
2022-08-22T00:22:06.384Z,99.90
2022-08-22T00:24:41.018Z,99.90
2022-08-22T00:27:14.427Z,99.90
2022-08-22T00:29:46.727Z,99.90
2022-08-22T00:32:21.493Z,99.90
2022-08-22T00:34:58.588Z,99.90
2022-08-22T00:37:33.233Z,99.90
2022-08-22T00:40:09.740Z,99.90
2022-08-22T00:42:55.942Z,99.90
2022-08-22T00:45:55.921Z,99.90
2022-08-22T00:48:59.973Z,99.90
2022-08-22T00:51:55.752Z,99.90
2022-08-22T00:54:36.103Z,99.90
2022-08-22T00:57:24.859Z,99.90
2022-08-22T01:00:10.196Z,99.90
2022-08-22T01:03:19.955Z,99.90
2022-08-22T01:06:05.532Z,99.90
2022-08-22T01:08:59.617Z,99.90
2022-08-22T01:11:55.775Z,99.90
2022-08-22T01:14:42.192Z,99.90
2022-08-22T01:17:44.291Z,99.90
2022-08-22T01:21:05.265Z,99.90
2022-08-22T01:24:25.701Z,99.90
2022-08-22T01:27:27.540Z,99.90
2022-08-22T01:30:19.381Z,99.90
2022-08-22T01:33:24.716Z,99.90
2022-08-22T01:36:21.957Z,99.90
2022-08-22T01:39:34.577Z,99.90
2022-08-22T01:42:47.456Z,99.90
2022-08-22T01:45:46.036Z,99.90
2022-08-22T01:48:21.426Z,99.90
2022-08-22T01:50:55.856Z,99.90
2022-08-22T01:53:29.725Z,99.90
2022-08-22T01:56:05.461Z,99.90
2022-08-22T01:58:38.377Z,99.90
2022-08-22T02:01:25.800Z,99.90
2022-08-22T02:04:03.403Z,99.90
2022-08-22T02:06:39.580Z,99.90
2022-08-22T02:09:22.986Z,99.90
2022-08-22T02:11:56.404Z,99.90
2022-08-22T02:14:43.624Z,99.90
2022-08-22T02:17:18.705Z,99.90
2022-08-22T02:19:58.899Z,99.90
2022-08-22T02:22:36.008Z,99.90
2022-08-22T02:25:22.708Z,99.90
2022-08-22T02:27:57.807Z,99.90
2022-08-22T02:30:32.140Z,99.90
2022-08-22T02:33:06.628Z,99.90
2022-08-22T02:35:41.335Z,99.90
2022-08-22T02:38:22.357Z,99.90
2022-08-22T02:41:05.851Z,99.90
2022-08-22T02:43:42.830Z,99.90
2022-08-22T02:46:22.879Z,99.90
2022-08-22T02:49:00.982Z,99.90
2022-08-22T02:51:36.397Z,99.90
2022-08-22T02:54:17.253Z,99.90
2022-08-22T02:56:53.990Z,99.90
2022-08-22T02:59:33.299Z,99.90
2022-08-22T03:02:27.916Z,99.90
2022-08-22T03:04:58.700Z,99.90
2022-08-22T03:07:37.405Z,99.90
2022-08-22T03:10:21.617Z,99.90
2022-08-22T03:13:00.672Z,99.90
2022-08-22T03:15:37.413Z,99.90
2022-08-22T03:18:17.233Z,99.90
2022-08-22T03:20:50.439Z,99.90
2022-08-22T03:23:29.370Z,99.90
2022-08-22T03:26:07.833Z,99.90
2022-08-22T03:28:59.402Z,99.90
2022-08-22T03:31:31.087Z,99.90
2022-08-22T03:34:22.729Z,99.90
2022-08-22T03:37:03.574Z,99.90
2022-08-22T03:39:58.106Z,99.90
2022-08-22T03:42:54.057Z,99.90
2022-08-22T03:45:59.658Z,99.90
2022-08-22T03:49:02.105Z,99.90
2022-08-22T03:51:41.920Z,99.90
2022-08-22T03:54:30.545Z,99.90
2022-08-22T03:57:44.553Z,99.90
2022-08-22T04:00:47.748Z,99.90
2022-08-22T04:03:54.975Z,99.90
2022-08-22T04:07:00.200Z,99.90
2022-08-22T04:10:07.852Z,99.90
2022-08-22T04:13:18.051Z,99.90
2022-08-22T04:16:11.752Z,99.90
2022-08-22T04:19:05.049Z,99.90
2022-08-22T04:21:52.816Z,99.90
2022-08-22T04:24:51.934Z,99.90
2022-08-22T04:27:26.826Z,99.90
2022-08-22T04:30:02.931Z,99.90
2022-08-22T04:32:38.139Z,99.90
2022-08-22T04:35:13.272Z,99.90
2022-08-22T04:37:50.984Z,99.90
2022-08-22T04:40:30.221Z,99.90
2022-08-22T04:43:06.153Z,99.90
2022-08-22T04:45:40.868Z,99.90
2022-08-22T04:48:15.938Z,99.90
2022-08-22T04:50:53.460Z,99.90
2022-08-22T04:53:50.992Z,99.90
2022-08-22T04:56:28.321Z,99.90
2022-08-22T04:58:59.235Z,99.90
2022-08-22T05:01:40.113Z,99.90
2022-08-22T05:04:11.741Z,99.90
2022-08-22T05:06:51.657Z,99.90
2022-08-22T05:09:25.593Z,99.90
2022-08-22T05:12:00.419Z,99.90
2022-08-22T05:14:36.576Z,99.90
2022-08-22T05:17:08.981Z,99.90
2022-08-22T05:19:40.769Z,99.90
2022-08-22T05:22:18.979Z,99.90
2022-08-22T05:24:50.291Z,99.90
2022-08-22T05:27:24.250Z,99.90
2022-08-22T05:29:59.622Z,99.90
2022-08-22T05:32:30.770Z,99.90
2022-08-22T05:35:01.782Z,99.90
2022-08-22T05:37:40.766Z,99.90
2022-08-22T05:40:15.670Z,99.90
2022-08-22T05:42:45.351Z,99.90
2022-08-22T05:45:17.956Z,99.90
2022-08-22T05:47:50.049Z,99.90
2022-08-22T05:50:21.685Z,99.90
2022-08-22T05:53:02.961Z,99.90
2022-08-22T05:55:37.450Z,99.90
2022-08-22T05:58:32.259Z,99.90
2022-08-22T06:01:09.473Z,99.90
2022-08-22T06:03:47.765Z,99.90
2022-08-22T06:06:19.386Z,99.90
2022-08-22T06:08:58.923Z,99.90
2022-08-22T06:11:34.014Z,99.90
2022-08-22T06:14:15.051Z,99.90
2022-08-22T06:16:50.883Z,99.90
2022-08-22T06:19:21.109Z,99.90
2022-08-22T06:21:51.918Z,99.90
2022-08-22T06:24:25.977Z,99.90
2022-08-22T06:26:59.705Z,99.90
2022-08-22T06:29:37.513Z,99.90
2022-08-22T06:32:13.260Z,99.90
2022-08-22T06:34:45.353Z,99.90
2022-08-22T06:37:19.428Z,99.90
2022-08-22T06:39:54.838Z,99.90
2022-08-22T06:42:27.851Z,99.90
2022-08-22T06:45:01.553Z,99.90
2022-08-22T06:47:33.900Z,99.90
2022-08-22T06:50:07.676Z,99.90
2022-08-22T06:52:54.066Z,99.90
2022-08-22T06:55:26.517Z,99.90
2022-08-22T06:57:58.921Z,99.90
2022-08-22T07:00:29.491Z,99.90
2022-08-22T07:03:04.772Z,99.90
2022-08-22T07:05:38.113Z,99.90
2022-08-22T07:08:09.416Z,99.90
2022-08-22T07:10:42.312Z,99.90
2022-08-22T07:13:15.969Z,99.90
2022-08-22T07:15:45.197Z,99.90
2022-08-22T07:18:19.286Z,99.90
2022-08-22T07:20:50.734Z,99.90
2022-08-22T07:23:31.614Z,99.90
2022-08-22T07:26:24.621Z,99.90
2022-08-22T07:28:59.097Z,99.90
2022-08-22T07:31:35.532Z,99.90
2022-08-22T07:34:29.053Z,99.90
2022-08-22T07:37:02.896Z,99.90
2022-08-22T07:39:37.359Z,99.90
2022-08-22T07:42:15.745Z,99.90
2022-08-22T07:45:07.277Z,99.90
2022-08-22T07:48:01.880Z,99.90
2022-08-22T07:50:33.373Z,99.90
2022-08-22T07:53:11.497Z,99.90
2022-08-22T07:55:49.439Z,99.90
2022-08-22T07:58:22.341Z,99.90
2022-08-22T08:00:52.867Z,99.90
2022-08-22T08:03:22.927Z,99.90
2022-08-22T08:05:52.151Z,99.80
2022-08-22T08:08:25.885Z,97.90
2022-08-22T08:10:57.831Z,96.90
2022-08-22T08:13:32.198Z,95.80
2022-08-22T08:16:01.779Z,96.00
2022-08-22T08:18:33.872Z,94.80
2022-08-22T08:21:06.606Z,93.70
2022-08-22T08:23:39.812Z,93.00
2022-08-22T08:26:12.866Z,92.00
2022-08-22T08:28:44.432Z,90.80
2022-08-22T08:31:21.731Z,91.30
2022-08-22T08:33:54.445Z,88.10
2022-08-22T08:36:47.781Z,88.40
2022-08-22T08:39:24.486Z,87.80
2022-08-22T08:42:20.612Z,84.60
2022-08-22T08:45:22.054Z,82.50
2022-08-22T08:48:38.992Z,81.30
2022-08-22T08:51:23.399Z,79.80
2022-08-22T08:54:23.049Z,78.90
2022-08-22T08:56:59.729Z,75.20
2022-08-22T08:59:44.457Z,72.70
2022-08-22T09:05:56.836Z,69.90
2022-08-22T09:08:45.167Z,68.70
2022-08-22T09:11:52.001Z,69.30
2022-08-22T09:14:36.789Z,69.50
2022-08-22T09:17:49.801Z,67.00
2022-08-22T09:20:29.825Z,67.60
2022-08-22T09:23:31.024Z,65.10
2022-08-22T09:26:04.946Z,64.90
2022-08-22T09:28:40.705Z,65.80
2022-08-22T09:31:47.439Z,65.80
2022-08-22T09:34:27.894Z,61.20
2022-08-22T09:40:16.595Z,71.30
2022-08-22T09:40:18.818Z,62.00
2022-08-22T09:42:57.431Z,62.10
2022-08-22T09:45:48.799Z,60.70
2022-08-22T09:48:35.484Z,61.30
2022-08-22T09:51:31.206Z,61.00
2022-08-22T09:54:31.510Z,61.20
2022-08-22T09:57:18.776Z,59.60
2022-08-22T10:00:23.831Z,57.80
2022-08-22T10:03:05.935Z,58.20
2022-08-22T10:05:45.755Z,57.20
2022-08-22T10:08:30.153Z,56.50
2022-08-22T10:11:17.388Z,54.30
2022-08-22T10:14:01.956Z,54.70
2022-08-22T10:16:55.330Z,54.90
2022-08-22T10:19:30.995Z,53.50
2022-08-22T10:22:20.110Z,54.00
2022-08-22T10:25:02.999Z,53.80
2022-08-22T10:27:49.894Z,52.30
2022-08-22T10:30:21.553Z,53.00
2022-08-22T10:32:58.151Z,53.40
2022-08-22T10:35:33.639Z,53.10
2022-08-22T10:38:12.499Z,50.50
2022-08-22T10:40:50.876Z,50.60
2022-08-22T10:43:28.996Z,53.20
2022-08-22T10:46:06.701Z,54.00
2022-08-22T10:48:46.972Z,53.50
2022-08-22T10:51:30.259Z,54.10
2022-08-22T10:54:10.236Z,53.50
2022-08-22T10:56:46.679Z,53.30
2022-08-22T10:59:30.814Z,53.00
2022-08-22T11:02:25.984Z,52.80
2022-08-22T11:05:37.703Z,50.50
2022-08-22T11:08:35.042Z,49.80
2022-08-22T11:11:20.896Z,50.70
2022-08-22T11:14:23.030Z,51.00
2022-08-22T11:17:23.517Z,51.50
2022-08-22T11:20:13.670Z,51.20
2022-08-22T11:22:48.660Z,50.20
2022-08-22T11:25:38.912Z,51.00
2022-08-22T11:28:31.800Z,50.70
2022-08-22T11:31:17.772Z,51.40
2022-08-22T11:33:54.389Z,50.00
2022-08-22T11:36:31.027Z,49.60
2022-08-22T11:39:18.091Z,49.20
2022-08-22T11:42:00.363Z,49.80
2022-08-22T11:44:34.805Z,50.00
2022-08-22T11:47:15.830Z,49.80
2022-08-22T11:49:52.476Z,50.10
2022-08-22T11:52:51.718Z,48.90
2022-08-22T11:55:27.555Z,48.50
2022-08-22T11:58:17.321Z,49.20
2022-08-22T12:00:55.327Z,49.20
2022-08-22T12:03:52.434Z,48.70
2022-08-22T12:06:45.703Z,49.20
2022-08-22T12:09:38.595Z,48.60
2022-08-22T12:12:35.260Z,48.90
2022-08-22T12:15:10.328Z,48.00
2022-08-22T12:18:21.200Z,48.50
2022-08-22T12:21:11.291Z,46.50
2022-08-22T12:24:06.141Z,46.70
2022-08-22T12:26:52.454Z,45.50
2022-08-22T12:29:39.992Z,44.80
2022-08-22T12:32:56.186Z,45.50
2022-08-22T12:35:35.348Z,42.10
2022-08-22T12:38:28.307Z,42.30
2022-08-22T12:41:35.068Z,43.80
2022-08-22T12:44:28.350Z,43.00
2022-08-22T12:47:29.746Z,43.20
2022-08-22T12:50:20.377Z,42.10
2022-08-22T12:53:10.824Z,41.60
2022-08-22T12:56:02.065Z,40.70
2022-08-22T12:59:00.077Z,42.20
2022-08-22T13:01:35.012Z,43.20
2022-08-22T13:04:06.674Z,42.10
2022-08-22T13:07:18.309Z,42.50
2022-08-22T13:09:52.286Z,43.50
2022-08-22T13:12:28.179Z,43.90
2022-08-22T13:15:02.766Z,44.50
2022-08-22T13:17:32.389Z,44.50
2022-08-22T13:20:14.523Z,43.60
2022-08-22T13:22:47.961Z,43.30
2022-08-22T13:25:26.090Z,43.40
2022-08-22T13:27:59.493Z,41.90
2022-08-22T13:30:33.083Z,42.40
2022-08-22T13:33:08.552Z,42.40
2022-08-22T13:35:45.550Z,42.10
2022-08-22T13:38:30.490Z,41.90
2022-08-22T13:41:00.613Z,42.10
2022-08-22T13:43:35.375Z,41.80
2022-08-22T13:46:11.081Z,41.60
2022-08-22T13:48:49.888Z,40.00
2022-08-22T13:51:25.959Z,40.60
2022-08-22T13:54:02.792Z,39.90
2022-08-22T13:56:50.378Z,41.30
2022-08-22T13:59:51.005Z,40.80
2022-08-22T14:02:43.155Z,41.10
2022-08-22T14:05:17.820Z,41.80
2022-08-22T14:07:55.485Z,42.10
2022-08-22T14:10:30.199Z,42.50
2022-08-22T14:13:33.232Z,42.40
2022-08-22T14:16:10.790Z,42.50
2022-08-22T14:18:46.189Z,42.60
2022-08-22T14:21:40.513Z,42.60
2022-08-22T14:24:18.942Z,43.50
2022-08-22T14:26:58.148Z,44.40
2022-08-22T14:29:32.163Z,44.60
2022-08-22T14:32:32.556Z,44.70
2022-08-22T14:35:17.000Z,45.00
2022-08-22T14:37:57.845Z,46.20
2022-08-22T14:40:30.778Z,45.90
2022-08-22T14:43:06.289Z,45.30
2022-08-22T14:45:39.958Z,45.90
2022-08-22T14:48:30.008Z,46.00
2022-08-22T14:51:04.183Z,46.40
2022-08-22T14:53:35.468Z,45.60
2022-08-22T14:56:08.872Z,45.70
2022-08-22T14:58:50.546Z,45.50
2022-08-22T15:01:22.900Z,45.30
2022-08-22T15:04:04.574Z,44.70
2022-08-22T15:06:47.868Z,44.30
2022-08-22T15:09:29.202Z,45.00
2022-08-22T15:12:01.697Z,45.20
2022-08-22T15:14:52.213Z,44.50
2022-08-22T15:17:50.714Z,44.20
2022-08-22T15:20:28.673Z,43.60
2022-08-22T15:23:01.920Z,43.20
2022-08-22T15:25:34.744Z,44.00
2022-08-22T15:28:07.851Z,44.20
2022-08-22T15:30:46.873Z,44.70
2022-08-22T15:33:25.257Z,44.50
2022-08-22T15:36:07.867Z,44.30
2022-08-22T15:38:42.120Z,44.20
2022-08-22T15:41:39.439Z,44.40
2022-08-22T15:44:30.907Z,45.10
2022-08-22T15:47:11.777Z,45.50
2022-08-22T15:49:58.097Z,46.40
2022-08-22T15:52:32.201Z,47.00
2022-08-22T15:55:22.912Z,47.20
2022-08-22T15:58:13.142Z,47.50
2022-08-22T16:00:45.976Z,48.30
2022-08-22T16:03:26.960Z,48.50
2022-08-22T16:05:58.878Z,48.20
2022-08-22T16:08:33.425Z,48.20
2022-08-22T16:11:30.958Z,48.50
2022-08-22T16:14:21.747Z,49.50
2022-08-22T16:17:01.166Z,51.00
2022-08-22T16:19:32.577Z,53.40
2022-08-22T16:22:12.130Z,51.60
2022-08-22T16:25:10.448Z,52.10
2022-08-22T16:27:56.915Z,52.40
2022-08-22T16:30:39.815Z,52.80
2022-08-22T16:33:18.337Z,51.10
2022-08-22T16:36:24.822Z,51.20
2022-08-22T16:38:58.312Z,52.30
2022-08-22T16:41:35.500Z,53.40
2022-08-22T16:44:49.443Z,53.10
2022-08-22T16:47:21.173Z,51.50
2022-08-22T16:50:06.970Z,51.60
2022-08-22T16:52:56.857Z,51.30
2022-08-22T16:56:03.985Z,51.40
2022-08-22T16:59:22.378Z,50.90
2022-08-22T17:02:35.765Z,50.70
2022-08-22T17:05:20.783Z,50.20
2022-08-22T17:08:02.111Z,51.50
2022-08-22T17:10:43.083Z,49.90
2022-08-22T17:13:26.359Z,49.80
2022-08-22T17:16:23.186Z,50.00
2022-08-22T17:19:12.343Z,49.80
2022-08-22T17:21:51.014Z,50.40
2022-08-22T17:24:34.219Z,50.60
2022-08-22T17:27:09.049Z,50.50
2022-08-22T17:30:01.250Z,50.60
2022-08-22T17:33:00.232Z,52.30
2022-08-22T17:35:43.592Z,50.10
2022-08-22T17:38:21.004Z,50.70
2022-08-22T17:40:59.605Z,50.70
2022-08-22T17:43:49.208Z,54.60
2022-08-22T17:46:33.888Z,56.30
2022-08-22T17:49:15.448Z,55.30
2022-08-22T17:51:51.130Z,54.60
2022-08-22T17:54:28.260Z,59.10
2022-08-22T17:57:05.728Z,53.60
2022-08-22T17:59:41.120Z,54.80
2022-08-22T18:02:16.360Z,56.10
2022-08-22T18:04:52.390Z,54.80
2022-08-22T18:07:36.070Z,54.40
2022-08-22T18:10:14.645Z,53.80
2022-08-22T18:12:48.973Z,53.00
2022-08-22T18:15:26.297Z,57.90
2022-08-22T18:18:00.256Z,53.90
2022-08-22T18:20:36.087Z,53.60
2022-08-22T18:23:21.781Z,55.30
2022-08-22T18:26:16.580Z,54.10
2022-08-22T18:28:52.014Z,54.70
2022-08-22T18:31:38.168Z,54.40
2022-08-22T18:34:21.984Z,54.30
2022-08-22T18:37:00.529Z,53.80
2022-08-22T18:39:33.183Z,54.10
2022-08-22T18:42:08.115Z,54.50
2022-08-22T18:44:39.768Z,54.30
2022-08-22T18:47:19.310Z,54.70
2022-08-22T18:49:54.161Z,54.90
2022-08-22T18:52:40.895Z,55.10
2022-08-22T18:55:29.425Z,55.60
2022-08-22T18:58:25.961Z,56.30
2022-08-22T19:01:08.213Z,55.50
2022-08-22T19:03:56.247Z,55.70
2022-08-22T19:06:43.289Z,56.40
2022-08-22T19:09:43.009Z,56.20
2022-08-22T19:12:29.511Z,56.10
2022-08-22T19:15:36.069Z,56.50
2022-08-22T19:18:28.275Z,56.40
2022-08-22T19:21:38.435Z,56.60
2022-08-22T19:24:32.828Z,56.70
2022-08-22T19:27:26.274Z,57.60
2022-08-22T19:30:02.253Z,57.50
2022-08-22T19:33:01.760Z,57.80
2022-08-22T19:36:02.418Z,58.30
2022-08-22T19:38:54.920Z,58.60
2022-08-22T19:41:42.663Z,59.40
2022-08-22T19:44:31.700Z,59.40
2022-08-22T19:47:08.197Z,59.70
2022-08-22T19:49:39.620Z,59.80
2022-08-22T19:52:20.893Z,59.90
2022-08-22T19:54:59.327Z,59.80
2022-08-22T19:57:38.902Z,59.70
2022-08-22T20:00:12.486Z,59.70
2022-08-22T20:02:56.548Z,60.70
2022-08-22T20:05:37.859Z,60.50
2022-08-22T20:08:24.932Z,60.50
2022-08-22T20:11:05.290Z,60.60
2022-08-22T20:13:37.359Z,61.10
2022-08-22T20:16:17.355Z,61.20
2022-08-22T20:19:06.437Z,61.20
2022-08-22T20:21:41.945Z,61.80
2022-08-22T20:24:14.932Z,60.60
2022-08-22T20:27:12.205Z,61.30
2022-08-22T20:29:39.696Z,60.30
2022-08-22T20:32:10.446Z,62.00
2022-08-22T20:34:39.396Z,63.10
2022-08-22T20:37:29.290Z,63.30
2022-08-22T20:40:03.947Z,63.00
2022-08-22T20:42:36.645Z,62.90
2022-08-22T20:45:12.502Z,63.70
2022-08-22T20:47:49.447Z,63.30
2022-08-22T20:50:24.182Z,62.30
2022-08-22T20:53:09.712Z,62.60
2022-08-22T20:55:38.472Z,63.20
2022-08-22T20:58:20.607Z,63.60
2022-08-22T21:00:52.203Z,64.30
2022-08-22T21:03:35.910Z,64.10
2022-08-22T21:06:13.176Z,64.10
2022-08-22T21:08:43.681Z,63.70
2022-08-22T21:11:34.085Z,65.50
2022-08-22T21:14:19.405Z,65.10
2022-08-22T21:16:47.867Z,64.10
2022-08-22T21:19:25.521Z,63.50
2022-08-22T21:21:54.535Z,64.00
2022-08-22T21:24:23.323Z,64.00
2022-08-22T21:26:55.665Z,64.30
2022-08-22T21:29:32.940Z,63.90
2022-08-22T21:32:15.271Z,65.10
2022-08-22T21:34:47.701Z,66.10
2022-08-22T21:37:18.582Z,65.20
2022-08-22T21:39:50.270Z,65.40
2022-08-22T21:42:25.606Z,65.60
2022-08-22T21:44:59.853Z,66.50
2022-08-22T21:47:32.611Z,67.50
2022-08-22T21:50:08.514Z,68.50
2022-08-22T21:52:39.679Z,68.70
2022-08-22T21:55:25.697Z,69.00
2022-08-22T21:58:13.208Z,68.70
2022-08-22T22:01:03.498Z,69.80
2022-08-22T22:03:37.564Z,69.20
2022-08-22T22:06:08.058Z,71.80
2022-08-22T22:08:36.541Z,68.50
2022-08-22T22:11:08.870Z,69.50
2022-08-22T22:13:37.354Z,69.40
2022-08-22T22:16:08.853Z,70.50
2022-08-22T22:18:39.092Z,70.40
2022-08-22T22:21:10.090Z,70.70
2022-08-22T22:23:38.465Z,71.50
2022-08-22T22:26:07.568Z,71.60
2022-08-22T22:28:39.111Z,72.20
2022-08-22T22:31:08.601Z,72.90
2022-08-22T22:33:39.279Z,73.00
2022-08-22T22:36:15.385Z,73.30
2022-08-22T22:38:43.842Z,73.70
2022-08-22T22:41:13.614Z,73.80
2022-08-22T22:43:42.133Z,73.80
2022-08-22T22:46:11.145Z,73.60
2022-08-22T22:48:39.445Z,74.30
2022-08-22T22:51:11.398Z,73.10
2022-08-22T22:53:44.412Z,73.00
2022-08-22T22:56:15.880Z,72.10
2022-08-22T22:58:44.783Z,73.60
2022-08-22T23:01:17.190Z,73.00
2022-08-22T23:03:46.896Z,72.10
2022-08-22T23:06:19.183Z,72.80
2022-08-22T23:08:48.170Z,72.90
2022-08-22T23:11:19.985Z,72.60
2022-08-22T23:13:49.319Z,72.30
2022-08-22T23:16:21.672Z,73.10
2022-08-22T23:18:50.928Z,73.60
2022-08-22T23:21:23.456Z,72.50
2022-08-22T23:23:52.217Z,72.30
2022-08-22T23:26:20.822Z,73.50
2022-08-22T23:28:49.644Z,75.40
2022-08-22T23:31:20.565Z,78.10
2022-08-22T23:33:49.450Z,81.10
2022-08-22T23:36:22.014Z,83.70
2022-08-22T23:38:51.948Z,86.00
2022-08-22T23:41:21.593Z,87.90
2022-08-22T23:43:52.481Z,89.70
2022-08-22T23:46:21.407Z,91.00
2022-08-22T23:48:50.914Z,92.10
2022-08-22T23:51:23.136Z,99.10
2022-08-22T23:53:52.651Z,98.80
2022-08-22T23:56:26.707Z,99.60
2022-08-22T23:58:55.702Z,99.90
